Time;durP1;ratioP1;P1;durP2;ratioP2;P2;SDS_P1;SDS_P2;PMS_P1;PMS_P2;Temp;Humidity;BMP_temperature;BMP_pressure;BME280_temperature;BME280_humidity;BME280_pressure;Samples;Min_cycle;Max_cycle;Signal;HPM_P1;HPM_P2
2023/05/28 00:01:09;;;;;;;10.90;3.40;;;;;;;15.02;58.52;99960.08;106543;1256;68734;-78
2023/05/28 00:03:37;;;;;;;8.10;3.90;;;;;;;14.98;58.76;99961.82;106374;1254;71195;-80
2023/05/28 00:06:06;;;;;;;9.30;4.10;;;;;;;14.96;58.62;99957.50;106213;1254;59609;-81
2023/05/28 00:08:33;;;;;;;10.40;3.90;;;;;;;14.93;58.65;99954.09;106156;1257;60304;-78
2023/05/28 00:11:01;;;;;;;8.70;4.10;;;;;;;14.91;58.88;99958.21;106332;1253;73108;-79
2023/05/28 00:13:29;;;;;;;10.40;3.70;;;;;;;14.89;59.02;99959.99;106114;1254;70091;-77
2023/05/28 00:15:56;;;;;;;6.80;3.50;;;;;;;14.85;59.11;99958.63;106116;1253;71477;-79
2023/05/28 00:18:25;;;;;;;5.10;3.80;;;;;;;14.81;59.18;99958.23;105897;1254;60421;-78
2023/05/28 00:20:52;;;;;;;9.20;3.70;;;;;;;14.78;59.17;99957.95;105958;1253;60460;-78
2023/05/28 00:23:19;;;;;;;17.70;3.90;;;;;;;14.74;59.16;99963.34;105892;1257;73991;-76
2023/05/28 00:25:47;;;;;;;6.30;3.50;;;;;;;14.71;59.29;99966.29;105796;1259;68898;-76
2023/05/28 00:28:14;;;;;;;5.60;3.00;;;;;;;14.67;59.27;99966.36;105947;1254;71440;-78
2023/05/28 00:30:42;;;;;;;5.90;3.60;;;;;;;14.64;59.29;99964.76;105833;1254;60531;-78
2023/05/28 00:33:09;;;;;;;9.00;3.40;;;;;;;14.61;59.31;99964.69;105983;1256;60518;-77
2023/05/28 00:35:37;;;;;;;7.00;3.60;;;;;;;14.57;59.43;99969.28;106019;1254;72262;-79
2023/05/28 00:38:04;;;;;;;7.50;3.20;;;;;;;14.53;59.43;99968.59;105968;1254;71276;-79
2023/05/28 00:40:32;;;;;;;8.60;3.60;;;;;;;14.51;59.58;99967.09;105967;1257;72733;-79
2023/05/28 00:43:00;;;;;;;7.10;3.80;;;;;;;14.48;59.50;99968.17;106172;1254;60565;-76
2023/05/28 00:45:27;;;;;;;7.30;3.40;;;;;;;14.45;59.51;99968.91;106068;1254;60532;-78
2023/05/28 00:47:55;;;;;;;8.40;4.00;;;;;;;14.42;59.48;99970.55;106459;1259;76441;-76
2023/05/28 00:50:22;;;;;;;13.20;3.50;;;;;;;14.38;59.69;99970.30;107067;1254;70586;-78
2023/05/28 00:52:51;;;;;;;6.60;4.40;;;;;;;14.36;59.63;99974.24;106022;1254;72696;-78
2023/05/28 00:55:19;;;;;;;8.40;3.90;;;;;;;14.34;59.51;99970.42;105791;1259;60537;-75
2023/05/28 00:57:48;;;;;;;7.50;3.70;;;;;;;14.33;59.48;99976.92;105959;1256;60417;-79
2023/05/28 01:00:16;;;;;;;7.80;3.70;;;;;;;14.30;59.60;99980.09;105904;1253;72598;-77
2023/05/28 01:02:44;;;;;;;4.90;3.60;;;;;;;14.27;59.73;99978.77;105995;1258;68838;-75
2023/05/28 01:05:11;;;;;;;5.60;3.40;;;;;;;14.23;59.73;99977.28;105962;1259;72777;-77
2023/05/28 01:07:40;;;;;;;6.80;3.20;;;;;;;14.19;59.74;99978.42;105919;1260;60433;-74
2023/05/28 01:10:08;;;;;;;5.40;3.60;;;;;;;14.17;59.94;99977.66;105826;1252;60480;-77
2023/05/28 01:12:35;;;;;;;5.60;2.90;;;;;;;14.13;59.84;99982.34;105855;1259;75004;-77
2023/05/28 01:15:03;;;;;;;6.60;3.40;;;;;;;14.11;59.93;99983.01;105958;1253;69957;-76
2023/05/28 01:17:30;;;;;;;5.60;3.50;;;;;;;14.07;59.78;99985.98;105844;1254;72581;-76
2023/05/28 01:20:09;;;;;;;7.00;3.50;;;;;;;14.03;59.96;99986.60;105889;1259;60489;-77
2023/05/28 01:22:38;;;;;;;8.00;3.70;;;;;;;13.99;60.00;99987.61;106100;1254;60601;-75
2023/05/28 01:25:10;;;;;;;12.40;3.80;;;;;;;13.97;60.06;99992.38;106276;1253;72581;-76
2023/05/28 01:27:39;;;;;;;7.00;3.70;;;;;;;13.93;60.05;99994.63;105905;1256;69062;-77
2023/05/28 01:30:09;;;;;;;10.40;3.10;;;;;;;13.90;60.04;100001.86;105939;1254;71856;-77
2023/05/28 01:32:38;;;;;;;8.90;3.90;;;;;;;13.87;60.04;100001.70;105862;1259;60423;-75
2023/05/28 01:35:06;;;;;;;6.30;3.50;;;;;;;13.84;59.99;100004.20;105937;1259;60435;-75
2023/05/28 01:37:39;;;;;;;7.80;2.90;;;;;;;13.81;60.00;100006.53;105746;1254;73871;-77
2023/05/28 01:40:07;;;;;;;9.00;3.20;;;;;;;13.79;59.84;100008.27;105964;1257;67875;-77
2023/05/28 01:42:35;;;;;;;5.60;3.30;;;;;;;13.76;60.08;100015.66;105935;1256;71281;-78
2023/05/28 01:45:03;;;;;;;5.60;3.20;;;;;;;13.73;59.85;100011.55;105935;1254;60402;-76
2023/05/28 01:47:35;;;;;;;9.50;3.30;;;;;;;13.70;59.92;100013.88;106009;1253;60427;-76
2023/05/28 01:50:02;;;;;;;5.40;3.30;;;;;;;13.65;59.96;100009.46;105839;1254;71611;-74
2023/05/28 01:52:30;;;;;;;8.30;3.50;;;;;;;13.60;59.80;100015.73;106281;1257;69208;-75
2023/05/28 01:54:58;;;;;;;10.70;3.10;;;;;;;13.54;59.82;100011.43;106056;1254;71239;-75
2023/05/28 01:57:25;;;;;;;9.00;3.30;;;;;;;13.54;59.85;100017.70;106219;1254;60603;-75
2023/05/28 01:59:53;;;;;;;6.20;2.90;;;;;;;13.52;59.87;100020.74;105835;1252;60524;-77
2023/05/28 02:02:25;;;;;;;8.50;3.30;;;;;;;13.50;59.84;100020.80;105918;1254;72631;-74
2023/05/28 02:04:53;;;;;;;5.10;2.70;;;;;;;13.49;59.91;100023.41;105876;1257;68759;-76
2023/05/28 02:07:21;;;;;;;5.80;3.40;;;;;;;13.46;59.81;100024.14;105882;1257;71400;-77
2023/05/28 02:09:49;;;;;;;6.40;2.80;;;;;;;13.44;59.81;100026.20;105816;1252;60362;-75
2023/05/28 02:12:16;;;;;;;4.40;2.90;;;;;;;13.42;59.68;100023.20;105834;1253;60322;-77
2023/05/28 02:14:44;;;;;;;6.70;3.60;;;;;;;13.40;59.73;100023.87;105735;1257;73818;-75
2023/05/28 02:17:12;;;;;;;5.60;3.20;;;;;;;13.38;59.69;100027.05;105802;1251;70285;-74
2023/05/28 02:19:39;;;;;;;7.80;3.30;;;;;;;13.37;59.60;100026.63;105900;1257;72641;-79
2023/05/28 02:22:11;;;;;;;5.70;2.80;;;;;;;13.35;59.61;100026.30;105943;1254;60434;-78
2023/05/28 02:24:39;;;;;;;4.90;3.00;;;;;;;13.33;59.42;100025.08;105818;1254;60317;-79
2023/05/28 02:27:07;;;;;;;5.10;2.70;;;;;;;13.30;59.40;100023.50;105753;1254;72611;-77
2023/05/28 02:29:35;;;;;;;5.80;3.10;;;;;;;13.27;59.39;100023.63;105804;1254;69321;-77
2023/05/28 02:32:02;;;;;;;3.50;2.50;;;;;;;13.24;59.34;100025.42;105725;1254;72805;-75
2023/05/28 02:34:31;;;;;;;5.20;2.50;;;;;;;13.22;59.33;100023.70;106464;1254;60585;-79
2023/05/28 02:37:00;;;;;;;6.70;3.00;;;;;;;13.21;59.32;100025.25;106449;1252;60535;-77
2023/05/28 02:39:27;;;;;;;5.50;2.70;;;;;;;13.21;59.21;100026.27;105803;1253;77246;-77
2023/05/28 02:41:55;;;;;;;7.50;2.60;;;;;;;13.20;59.14;100027.16;105832;1254;70593;-75
2023/05/28 02:44:23;;;;;;;8.70;2.70;;;;;;;13.20;59.20;100027.39;105812;1258;71303;-77
2023/05/28 02:46:50;;;;;;;6.30;3.10;;;;;;;13.20;59.19;100022.05;105920;1254;60415;-78
2023/05/28 02:49:18;;;;;;;6.80;3.30;;;;;;;13.21;59.13;100024.40;105836;1259;60356;-81
2023/05/28 02:51:46;;;;;;;8.30;3.00;;;;;;;13.22;59.09;100023.25;105885;1254;73880;-79
2023/05/28 02:54:26;;;;;;;5.10;2.70;;;;;;;13.22;58.96;100025.83;105896;1254;70337;-76
2023/05/28 02:56:54;;;;;;;5.70;3.10;;;;;;;13.22;58.91;100027.11;105723;1257;71953;-76
2023/05/28 02:59:21;;;;;;;4.40;2.70;;;;;;;13.22;58.95;100019.27;105913;1259;60486;-76
2023/05/28 03:01:49;;;;;;;18.10;2.90;;;;;;;13.23;58.89;100022.73;107356;1254;59538;-78
2023/05/28 03:04:16;;;;;;;6.20;2.80;;;;;;;13.23;58.78;100022.91;107269;1253;72587;-76
2023/05/28 03:06:44;;;;;;;5.50;2.90;;;;;;;13.23;58.61;100023.27;106773;1259;68941;-74
2023/05/28 03:09:11;;;;;;;6.00;2.70;;;;;;;13.25;58.50;100027.67;106573;1259;71606;-76
2023/05/28 03:11:39;;;;;;;4.80;2.80;;;;;;;13.27;58.39;100030.27;105815;1259;60486;-79
2023/05/28 03:14:07;;;;;;;5.60;2.50;;;;;;;13.29;58.30;100031.93;106009;1251;60434;-76
2023/05/28 03:16:36;;;;;;;7.50;2.60;;;;;;;13.31;58.12;100032.64;106443;1253;72550;-75
2023/05/28 03:19:11;;;;;;;4.30;2.40;;;;;;;13.33;58.12;100037.48;106299;1253;69322;-76
2023/05/28 03:21:40;;;;;;;7.90;2.70;;;;;;;13.35;57.93;100040.59;106140;1253;73596;-76
2023/05/28 03:24:08;;;;;;;4.70;2.80;;;;;;;13.36;57.85;100043.27;106066;1254;60539;-78
2023/05/28 03:26:42;;;;;;;6.80;2.10;;;;;;;13.39;57.59;100050.95;106040;1254;60370;-76
2023/05/28 03:29:09;;;;;;;4.80;2.50;;;;;;;13.40;57.22;100048.52;105867;1253;73100;-74
2023/05/28 03:31:44;;;;;;;4.50;2.10;;;;;;;13.41;57.22;100056.91;105726;1252;70207;-75
2023/05/28 03:34:13;;;;;;;5.70;2.50;;;;;;;13.43;57.11;100055.83;105963;1256;72624;-76
2023/05/28 03:36:40;;;;;;;6.00;2.90;;;;;;;13.46;56.95;100056.73;105731;1257;60527;-78
2023/05/28 03:39:09;;;;;;;6.50;2.50;;;;;;;13.49;56.91;100060.48;105954;1256;60399;-76
2023/05/28 03:41:37;;;;;;;8.20;3.40;;;;;;;13.51;56.68;100059.98;105755;1254;73883;-76
2023/05/28 03:44:05;;;;;;;6.40;2.40;;;;;;;13.54;56.40;100061.87;106009;1256;70534;-75
2023/05/28 03:46:32;;;;;;;5.80;2.40;;;;;;;13.55;56.32;100063.30;105903;1253;72435;-75
2023/05/28 03:49:00;;;;;;;4.80;2.90;;;;;;;13.57;56.20;100059.89;105733;1254;60563;-76
2023/05/28 03:51:31;;;;;;;6.30;2.80;;;;;;;13.60;56.16;100061.36;106018;1254;60582;-77
2023/05/28 03:54:00;;;;;;;3.50;2.60;;;;;;;13.62;55.89;100061.95;105865;1259;73857;-77
2023/05/28 03:56:29;;;;;;;6.80;3.00;;;;;;;13.65;55.79;100062.27;105738;1254;70410;-77
2023/05/28 03:58:57;;;;;;;5.80;1.90;;;;;;;13.71;55.87;100057.39;105953;1256;71365;-76
2023/05/28 04:01:24;;;;;;;7.00;2.40;;;;;;;13.78;55.58;100058.20;105818;1254;60376;-75
2023/05/28 04:03:53;;;;;;;4.00;2.40;;;;;;;13.84;55.81;100056.67;105852;1254;60530;-74
2023/05/28 04:06:22;;;;;;;5.40;2.50;;;;;;;13.91;55.56;100062.25;106463;1254;73810;-74
2023/05/28 04:08:52;;;;;;;5.10;2.30;;;;;;;14.00;55.40;100058.79;106500;1258;68989;-74
2023/05/28 04:11:21;;;;;;;5.00;2.30;;;;;;;14.06;55.33;100060.32;106048;1254;72460;-74
2023/05/28 04:13:52;;;;;;;5.50;3.00;;;;;;;14.12;55.05;100059.27;106722;1251;60373;-77
2023/05/28 04:16:22;;;;;;;9.00;2.30;;;;;;;14.16;54.75;100061.95;106875;1256;60466;-77
2023/05/28 04:18:50;;;;;;;4.50;2.70;;;;;;;14.20;54.71;100057.98;107585;1251;72555;-75
2023/05/28 04:21:20;;;;;;;5.50;2.40;;;;;;;14.25;54.50;100060.77;106941;1254;69996;-75
2023/05/28 04:23:48;;;;;;;5.60;3.00;;;;;;;14.32;54.52;100060.77;107814;1253;71382;-76
2023/05/28 04:26:16;;;;;;;3.70;2.50;;;;;;;14.42;54.12;100063.83;107958;1252;60470;-77
2023/05/28 04:28:43;;;;;;;4.90;2.40;;;;;;;14.52;53.78;100061.27;105956;1259;60376;-77
2023/05/28 04:31:11;;;;;;;4.40;2.40;;;;;;;14.58;53.63;100064.80;106352;1251;73886;-79
2023/05/28 04:33:39;;;;;;;3.40;2.30;;;;;;;14.65;53.61;100058.67;106127;1254;70195;-82
2023/05/28 04:36:13;;;;;;;3.40;2.30;;;;;;;14.73;53.41;100058.16;106636;1257;72735;-79
2023/05/28 04:38:43;;;;;;;3.20;2.30;;;;;;;14.84;53.35;100065.82;106762;1259;60408;-77
2023/05/28 04:41:14;;;;;;;6.10;2.50;;;;;;;14.95;53.16;100060.30;106341;1256;60332;-78
2023/05/28 04:43:41;;;;;;;6.20;2.40;;;;;;;15.07;53.02;100068.83;106652;1254;73960;-80
2023/05/28 04:46:09;;;;;;;3.70;2.50;;;;;;;15.20;52.83;100068.80;106160;1259;70850;-80
2023/05/28 04:48:37;;;;;;;5.40;2.40;;;;;;;15.31;52.42;100073.53;105756;1259;71953;-79
2023/05/28 04:51:05;;;;;;;9.60;2.20;;;;;;;15.38;52.07;100074.13;105947;1259;60917;-81
2023/05/28 04:53:36;;;;;;;6.50;2.30;;;;;;;15.41;52.00;100079.93;106104;1259;60342;-79
2023/05/28 04:56:05;;;;;;;7.10;2.60;;;;;;;15.46;51.99;100079.12;106027;1255;73830;-77
2023/05/28 04:58:32;;;;;;;4.10;2.30;;;;;;;15.54;51.62;100077.79;106070;1258;70445;-76
2023/05/28 05:01:00;;;;;;;6.40;1.90;;;;;;;15.61;51.59;100080.23;105792;1259;71481;-75
2023/05/28 05:03:31;;;;;;;4.40;1.90;;;;;;;15.64;51.50;100082.40;105820;1254;60540;-76
2023/05/28 05:05:59;;;;;;;3.10;1.80;;;;;;;15.71;51.47;100085.76;106023;1259;60437;-78
2023/05/28 05:08:27;;;;;;;4.00;2.20;;;;;;;15.77;51.33;100087.82;105938;1254;72601;-79
2023/05/28 05:10:55;;;;;;;3.60;1.90;;;;;;;15.92;51.06;100088.96;105891;1259;68937;-78
2023/05/28 05:13:23;;;;;;;5.10;2.20;;;;;;;16.15;50.91;100086.61;106589;1251;72929;-76
2023/05/28 05:15:51;;;;;;;3.50;2.20;;;;;;;16.38;50.49;100082.83;106801;1251;60355;-77
2023/05/28 05:18:20;;;;;;;3.90;2.40;;;;;;;16.51;50.35;100076.46;106604;1254;60437;-78
2023/05/28 05:20:47;;;;;;;6.50;2.60;;;;;;;16.55;50.16;100081.30;105961;1251;73838;-78
2023/05/28 05:23:15;;;;;;;3.80;2.20;;;;;;;16.58;50.19;100080.84;106267;1259;68864;-80
2023/05/28 05:25:47;;;;;;;4.60;2.80;;;;;;;16.61;49.86;100081.96;105872;1259;72848;-80
2023/05/28 05:28:15;;;;;;;8.80;2.60;;;;;;;16.58;49.74;100084.27;105915;1252;60466;-79
2023/05/28 05:30:43;;;;;;;5.10;2.50;;;;;;;16.52;49.72;100082.41;106120;1256;60871;-80
2023/05/28 05:33:12;;;;;;;3.00;2.30;;;;;;;16.47;49.75;100082.02;105995;1257;73092;-80
2023/05/28 05:36:11;;;;;;;5.70;2.40;;;;;;;16.42;49.77;100087.56;105794;1254;69014;-75
2023/05/28 05:39:02;;;;;;;7.80;2.30;;;;;;;16.42;49.95;100089.14;105749;1254;71256;-74
2023/05/28 05:41:50;;;;;;;4.70;2.60;;;;;;;16.41;50.15;100095.23;105706;1259;60591;-74
2023/05/28 05:44:26;;;;;;;4.30;2.40;;;;;;;16.42;50.20;100093.71;106105;1254;60516;-74
2023/05/28 05:46:54;;;;;;;5.90;2.40;;;;;;;16.42;50.13;100093.18;105845;1259;73861;-74
2023/05/28 05:49:21;;;;;;;8.10;2.70;;;;;;;16.44;50.24;100092.40;105768;1254;70161;-75
2023/05/28 05:51:49;;;;;;;5.50;2.50;;;;;;;16.46;50.11;100094.46;105711;1252;72721;-76
2023/05/28 05:54:17;;;;;;;4.40;2.50;;;;;;;16.47;50.06;100092.66;105990;1254;60476;-78
2023/05/28 05:56:45;;;;;;;4.10;2.20;;;;;;;16.50;50.14;100088.34;106000;1256;60475;-78
2023/05/28 05:59:12;;;;;;;5.60;2.30;;;;;;;16.51;50.43;100087.89;105960;1254;74154;-76
2023/05/28 06:01:40;;;;;;;7.00;2.40;;;;;;;16.53;50.19;100090.27;105831;1251;70536;-79
2023/05/28 06:04:07;;;;;;;6.20;2.60;;;;;;;16.57;50.07;100090.80;105788;1253;73152;-75
2023/05/28 06:07:10;;;;;;;4.10;2.60;;;;;;;16.65;49.89;100094.41;105429;1260;60524;-75
2023/05/28 06:09:51;;;;;;;4.20;2.20;;;;;;;16.71;50.01;100090.98;105782;1259;60373;-75
2023/05/28 06:12:23;;;;;;;7.30;2.30;;;;;;;16.77;50.10;100088.59;105951;1258;72973;-74
2023/05/28 06:14:50;;;;;;;3.80;2.40;;;;;;;16.85;49.86;100092.45;106001;1259;72320;-74
2023/05/28 06:17:19;;;;;;;3.40;1.90;;;;;;;16.90;49.76;100093.79;105909;1254;73092;-76
2023/05/28 06:19:49;;;;;;;4.10;2.30;;;;;;;16.93;50.05;100089.48;105993;1256;60924;-79
2023/05/28 06:22:17;;;;;;;5.00;2.30;;;;;;;16.97;49.89;100089.11;105831;1259;60441;-76
2023/05/28 06:24:45;;;;;;;6.80;2.30;;;;;;;17.01;49.68;100081.40;106046;1256;74003;-72
2023/05/28 06:27:13;;;;;;;4.40;2.10;;;;;;;17.09;49.48;100089.65;106040;1254;70343;-77
2023/05/28 06:29:41;;;;;;;3.10;2.30;;;;;;;17.14;49.43;100090.81;105955;1254;72746;-75
2023/05/28 06:32:08;;;;;;;9.70;3.30;;;;;;;17.19;49.47;100094.29;105954;1254;60862;-73
2023/05/28 06:34:36;;;;;;;3.70;2.50;;;;;;;17.25;49.58;100091.83;105924;1257;60435;-75
2023/05/28 06:37:04;;;;;;;3.60;2.30;;;;;;;17.31;49.52;100088.52;105911;1258;73915;-75
2023/05/28 06:39:34;;;;;;;9.30;2.70;;;;;;;17.37;49.57;100090.86;105920;1259;69649;-76
2023/05/28 06:42:03;;;;;;;5.00;2.30;;;;;;;17.44;49.30;100088.98;105731;1259;71545;-74
2023/05/28 06:44:37;;;;;;;4.20;2.20;;;;;;;17.52;49.18;100091.13;105849;1253;60784;-75
2023/05/28 06:47:10;;;;;;;3.80;2.50;;;;;;;17.58;49.12;100090.69;105926;1258;60478;-75
2023/05/28 06:49:37;;;;;;;7.10;2.70;;;;;;;17.65;49.00;100089.05;105659;1262;73829;-74
2023/05/28 06:52:05;;;;;;;6.80;2.10;;;;;;;17.71;48.80;100088.80;105783;1259;68857;-74
2023/05/28 06:54:33;;;;;;;5.40;2.80;;;;;;;17.77;48.67;100087.13;105935;1259;72724;-77
2023/05/28 06:57:00;;;;;;;2.90;2.30;;;;;;;17.80;48.52;100086.31;105913;1254;62608;-71
2023/05/28 06:59:43;;;;;;;7.30;2.90;;;;;;;17.86;48.52;100082.16;105822;1259;60457;-74
2023/05/28 07:02:36;;;;;;;3.30;2.60;;;;;;;17.91;48.63;100075.88;105795;1259;73029;-73
2023/05/28 07:05:22;;;;;;;13.00;3.30;;;;;;;17.99;48.62;100076.23;105711;1259;68988;-75
2023/05/28 07:07:50;;;;;;;4.90;2.60;;;;;;;18.04;48.46;100075.73;105960;1259;72733;-76
2023/05/28 07:10:18;;;;;;;3.90;2.80;;;;;;;18.07;48.34;100075.29;105906;1255;60518;-74
2023/05/28 07:12:46;;;;;;;5.30;3.10;;;;;;;18.11;48.15;100075.73;105982;1253;60562;-74
2023/05/28 07:15:15;;;;;;;7.40;2.70;;;;;;;18.16;47.98;100076.83;105913;1259;72967;-74
2023/05/28 07:17:43;;;;;;;4.10;2.20;;;;;;;18.23;47.88;100072.80;105718;1259;68711;-74
2023/05/28 07:20:11;;;;;;;5.10;2.70;;;;;;;18.29;47.98;100069.15;106004;1254;72721;-72
2023/05/28 07:22:49;;;;;;;3.90;2.40;;;;;;;18.32;48.07;100063.57;105784;1259;60504;-77
2023/05/28 07:25:17;;;;;;;6.50;2.50;;;;;;;18.35;47.98;100069.05;106128;1254;60355;-75
2023/05/28 07:27:44;;;;;;;5.90;2.40;;;;;;;18.41;47.80;100072.84;105877;1259;73738;-73
2023/05/28 07:30:17;;;;;;;7.40;2.80;;;;;;;18.49;47.59;100070.55;106021;1259;68079;-76
2023/05/28 07:32:44;;;;;;;5.00;2.40;;;;;;;18.55;47.50;100064.11;106100;1259;71371;-75
2023/05/28 07:35:12;;;;;;;5.60;2.40;;;;;;;18.59;47.35;100062.81;106276;1254;60540;-72
2023/05/28 07:37:40;;;;;;;5.10;3.00;;;;;;;18.63;47.34;100057.79;106181;1254;60405;-75
2023/05/28 07:40:10;;;;;;;3.60;2.20;;;;;;;18.69;47.41;100054.24;106022;1257;74850;-76
2023/05/28 07:42:38;;;;;;;4.80;2.10;;;;;;;18.76;47.47;100054.79;106179;1254;69216;-74
2023/05/28 07:45:07;;;;;;;5.20;2.10;;;;;;;18.84;47.16;100048.70;106171;1255;72492;-73
2023/05/28 07:47:35;;;;;;;13.10;2.70;;;;;;;18.87;47.01;100050.89;106075;1254;60466;-74
2023/05/28 07:50:41;;;;;;;7.60;3.20;;;;;;;18.88;46.84;100048.06;105931;1260;60430;-74
2023/05/28 07:53:17;;;;;;;4.10;2.60;;;;;;;18.86;47.07;100045.14;105876;1260;71832;-74
2023/05/28 07:55:45;;;;;;;5.10;2.50;;;;;;;18.90;47.12;100044.56;106049;1259;69189;-72
2023/05/28 07:58:13;;;;;;;3.90;2.30;;;;;;;18.97;47.06;100045.45;106152;1253;72515;-74
2023/05/28 08:00:42;;;;;;;5.30;2.20;;;;;;;19.03;47.08;100038.98;105971;1258;60547;-74
2023/05/28 08:03:11;;;;;;;3.00;2.30;;;;;;;19.12;46.83;100042.57;106236;1257;60361;-74
2023/05/28 08:05:41;;;;;;;7.70;3.10;;;;;;;19.21;46.64;100041.80;106111;1259;73852;-76
2023/05/28 08:08:08;;;;;;;4.40;2.10;;;;;;;19.32;46.19;100039.84;105921;1253;70338;-75
2023/05/28 08:10:37;;;;;;;4.60;2.50;;;;;;;19.41;45.96;100040.65;106219;1258;71405;-73
2023/05/28 08:13:04;;;;;;;5.90;2.80;;;;;;;19.48;45.68;100041.29;105858;1257;60315;-73
2023/05/28 08:15:32;;;;;;;3.80;2.30;;;;;;;19.53;45.48;100045.67;106045;1259;60376;-74
2023/05/28 08:18:00;;;;;;;2.50;2.30;;;;;;;19.59;45.04;100043.23;105984;1255;72663;-78
2023/05/28 08:20:29;;;;;;;5.70;2.10;;;;;;;19.64;44.87;100045.11;105971;1253;69365;-74
2023/05/28 08:23:23;;;;;;;;;;;;;;;19.64;45.10;100046.46;106158;1253;374890;-75
2023/05/28 08:27:01;;;;;;;4.00;2.40;;;;;;;19.71;45.14;100037.30;103537;1295;599733;-75
2023/05/28 08:29:30;;;;;;;5.30;2.40;;;;;;;19.83;45.03;100040.61;105846;1266;59770;-76
2023/05/28 08:32:04;;;;;;;7.50;2.60;;;;;;;19.95;44.60;100037.23;106363;1259;60366;-76
2023/05/28 08:34:36;;;;;;;6.50;3.00;;;;;;;20.03;44.25;100035.78;106752;1259;72093;-74
2023/05/28 08:37:04;;;;;;;5.10;2.50;;;;;;;20.15;44.31;100035.72;106929;1259;70386;-76
2023/05/28 08:39:36;;;;;;;9.00;2.40;;;;;;;20.33;44.27;100033.34;106717;1256;187488;-75
2023/05/28 08:42:03;;;;;;;6.10;2.30;;;;;;;20.50;44.02;100033.77;106599;1256;60218;-75
2023/05/28 08:44:31;;;;;;;3.50;2.10;;;;;;;20.61;43.62;100028.01;106223;1257;59356;-73
2023/05/28 08:46:58;;;;;;;2.80;2.30;;;;;;;20.71;43.54;100024.55;106118;1261;73533;-73
2023/05/28 08:49:50;;;;;;;4.30;2.40;;;;;;;20.84;43.21;100017.69;106169;1260;69100;-74
2023/05/28 08:52:18;;;;;;;4.90;2.60;;;;;;;21.00;42.87;100008.98;106108;1261;72500;-76
2023/05/28 08:54:48;;;;;;;12.20;3.00;;;;;;;21.15;42.51;100007.20;106048;1262;59734;-73
2023/05/28 08:57:15;;;;;;;4.60;2.40;;;;;;;21.24;42.25;100018.45;106015;1256;60454;-75
2023/05/28 08:59:53;;;;;;;3.70;2.30;;;;;;;21.35;42.08;100019.15;106049;1262;73244;-77
2023/05/28 09:02:24;;;;;;;6.20;2.70;;;;;;;21.54;41.97;100021.27;106095;1256;71502;-75
2023/05/28 09:04:52;;;;;;;4.40;2.50;;;;;;;21.79;41.67;100022.07;106376;1252;70515;-76
2023/05/28 09:07:19;;;;;;;4.00;2.10;;;;;;;22.05;41.03;100021.46;106993;1252;60183;-75
2023/05/28 09:09:56;;;;;;;3.10;2.50;;;;;;;22.31;40.77;100018.20;106886;1253;60246;-76
2023/05/28 09:12:24;;;;;;;2.90;2.10;;;;;;;22.58;40.03;100012.48;106851;1258;71737;-74
2023/05/28 09:14:56;;;;;;;3.40;2.50;;;;;;;22.78;39.52;100012.58;106641;1255;70226;-75
2023/05/28 09:17:36;;;;;;;7.10;2.00;;;;;;;22.94;39.32;100014.73;106553;1253;70656;-77
2023/05/28 09:20:14;;;;;;;2.80;2.30;;;;;;;23.26;38.92;100021.77;106290;1253;60062;-74
2023/05/28 09:22:43;;;;;;;6.20;2.80;;;;;;;23.66;38.64;100022.03;106269;1251;59959;-77
2023/05/28 09:25:24;;;;;;;2.70;2.30;;;;;;;24.25;37.95;100017.02;106455;1253;72255;-74
2023/05/28 09:28:07;;;;;;;6.60;2.40;;;;;;;24.88;37.04;100021.69;106438;1254;70403;-76
2023/05/28 09:30:35;;;;;;;6.20;2.60;;;;;;;25.44;36.45;100013.85;106544;1253;71385;-76
2023/05/28 09:33:03;;;;;;;3.40;2.00;;;;;;;26.02;35.44;100016.51;106692;1254;60821;-75
2023/05/28 09:35:30;;;;;;;3.60;2.70;;;;;;;26.50;34.82;100013.03;106606;1253;60021;-77
2023/05/28 09:38:01;;;;;;;5.20;2.70;;;;;;;26.97;34.34;100004.71;106367;1252;73010;-76
2023/05/28 09:40:27;;;;;;;6.30;2.30;;;;;;;27.42;33.57;100007.06;106523;1253;70167;-75
2023/05/28 09:42:54;;;;;;;5.20;2.30;;;;;;;27.85;33.07;100012.91;106399;1256;72612;-77
2023/05/28 09:45:27;;;;;;;4.20;2.30;;;;;;;28.33;32.62;100009.59;107240;1254;59663;-76
2023/05/28 09:47:54;;;;;;;;;;;;;;;28.74;31.62;100015.27;108330;1256;59345;-76
2023/05/28 09:50:22;;;;;;;3.60;2.40;;;;;;;28.92;31.50;100006.63;108703;1253;73003;-77
2023/05/28 09:52:49;;;;;;;5.50;2.50;;;;;;;29.11;31.27;100010.72;109106;1253;68938;-76
2023/05/28 09:55:19;;;;;;;3.40;2.30;;;;;;;29.40;31.10;100008.88;109253;1253;71269;-77
2023/05/28 09:57:58;;;;;;;6.20;2.80;;;;;;;29.71;30.69;100008.66;109289;1257;59006;-76
2023/05/28 10:00:40;;;;;;;4.70;2.40;;;;;;;30.00;30.20;100007.25;108674;1252;59903;-76
2023/05/28 10:03:18;;;;;;;2.50;2.10;;;;;;;30.35;29.92;100006.52;108439;1256;72821;-74
2023/05/28 10:05:51;;;;;;;3.10;2.60;;;;;;;30.75;29.73;100008.48;108488;1253;68750;-75
2023/05/28 10:08:19;;;;;;;3.30;2.50;;;;;;;31.14;29.20;100005.11;108669;1253;72770;-77
2023/05/28 10:10:49;;;;;;;4.70;2.50;;;;;;;31.37;28.82;100006.75;109472;1253;59081;-77
2023/05/28 10:13:16;;;;;;;2.30;2.10;;;;;;;31.59;28.60;100004.45;108971;1253;58836;-75
2023/05/28 10:15:45;;;;;;;8.10;2.30;;;;;;;31.86;28.28;99997.89;108907;1254;71965;-78
2023/05/28 10:18:15;;;;;;;3.70;2.50;;;;;;;32.14;27.97;100001.56;108723;1253;70010;-77
2023/05/28 10:20:42;;;;;;;2.70;2.50;;;;;;;32.36;27.55;99998.73;109109;1252;71386;-77
2023/05/28 10:23:09;;;;;;;3.20;2.30;;;;;;;32.49;27.61;100000.94;109239;1252;59615;-76
2023/05/28 10:25:36;;;;;;;2.40;2.10;;;;;;;32.70;27.14;100000.64;109012;1252;60102;-78
2023/05/28 10:28:03;;;;;;;3.00;2.50;;;;;;;32.93;27.08;100000.73;109142;1253;71732;-75
2023/05/28 10:30:37;;;;;;;3.70;2.30;;;;;;;33.16;26.81;99996.89;108812;1253;69011;-77
2023/05/28 10:33:07;;;;;;;5.40;3.30;;;;;;;33.42;26.59;100001.46;109254;1253;71460;-78
2023/05/28 10:35:35;;;;;;;4.60;2.60;;;;;;;33.62;26.19;100001.85;109236;1253;58928;-76
2023/05/28 10:38:07;;;;;;;4.90;2.50;;;;;;;33.61;26.40;99999.60;108723;1253;59509;-77
2023/05/28 10:40:35;;;;;;;2.90;2.40;;;;;;;33.60;26.34;99995.34;108897;1253;71694;-76
2023/05/28 10:43:02;;;;;;;4.60;3.00;;;;;;;33.78;26.27;99993.46;108758;1256;69108;-75
2023/05/28 10:45:36;;;;;;;5.10;2.80;;;;;;;34.03;26.05;99988.38;108540;1253;71606;-77
2023/05/28 10:48:04;;;;;;;3.00;2.50;;;;;;;34.36;25.66;99986.51;108630;1254;59492;-77
2023/05/28 10:51:00;;;;;;;3.40;2.50;;;;;;;34.67;25.53;99994.55;108946;1253;60628;-77
2023/05/28 10:53:27;;;;;;;3.60;2.50;;;;;;;34.95;25.32;99991.20;108416;1256;63501;-76
2023/05/28 10:55:54;;;;;;;5.00;3.00;;;;;;;35.12;25.22;99994.24;108460;1253;60247;-76
2023/05/28 10:58:42;;;;;;;2.90;2.50;;;;;;;35.25;24.94;99994.28;108467;1253;62717;-78
2023/05/28 11:01:09;;;;;;;3.90;2.90;;;;;;;35.43;24.63;99990.65;107873;1258;60327;-77
2023/05/28 11:03:45;;;;;;;4.10;2.80;;;;;;;35.56;24.73;99985.98;108783;1253;59637;-78
2023/05/28 11:06:12;;;;;;;3.50;2.70;;;;;;;35.73;24.35;99986.08;109094;1256;63028;-77
2023/05/28 11:08:47;;;;;;;7.10;2.70;;;;;;;35.87;24.32;99983.81;106570;1257;60610;-74
2023/05/28 11:11:15;;;;;;;5.00;2.70;;;;;;;36.00;24.24;99987.39;106240;1257;65261;-76
2023/05/28 11:13:45;;;;;;;2.40;2.20;;;;;;;36.15;24.08;99986.54;106117;1253;59621;-75
2023/05/28 11:16:13;;;;;;;2.90;2.60;;;;;;;36.28;23.85;99989.02;106114;1259;59682;-77
2023/05/28 11:18:59;;;;;;;4.70;2.60;;;;;;;36.23;23.64;99995.90;106043;1257;64426;-78
2023/05/28 11:21:31;;;;;;;3.30;2.20;;;;;;;36.00;23.89;100000.66;105990;1256;60324;-74
2023/05/28 11:24:17;;;;;;;3.00;2.40;;;;;;;36.07;23.96;100000.00;105777;1258;64692;-77
2023/05/28 11:26:44;;;;;;;7.30;2.80;;;;;;;36.22;23.90;99995.02;106057;1258;59599;-76
2023/05/28 11:29:12;;;;;;;3.20;2.30;;;;;;;36.36;23.78;99991.54;105902;1254;59741;-76
2023/05/28 11:31:40;;;;;;;4.30;2.60;;;;;;;36.46;23.63;99989.55;106135;1256;64216;-75
2023/05/28 11:34:08;;;;;;;6.40;2.90;;;;;;;36.54;23.55;99989.77;106310;1259;60482;-76